Time;durP1;ratioP1;P1;durP2;ratioP2;P2;SDS_P1;SDS_P2;PMS_P1;PMS_P2;Temp;Humidity;BMP_temperature;BMP_pressure;BME280_temperature;BME280_humidity;BME280_pressure;Samples;Min_cycle;Max_cycle;Signal;HPM_P1;HPM_P2
2023/05/08 00:00:03;;;;;;;;;;;12.90;99.90;;;;;;5040191;28;20334;-79
2023/05/08 00:02:29;;;;;;;;;;;12.90;99.90;;;;;;5093850;28;19925;-79
2023/05/08 00:04:55;;;;;;;;;;;12.90;99.90;;;;;;5094214;28;19928;-79
2023/05/08 00:07:21;;;;;;;;;;;12.80;99.90;;;;;;5060638;28;19956;-79
2023/05/08 00:09:46;;;;;;;;;;;12.80;99.90;;;;;;5058936;28;19932;-79
2023/05/08 00:12:12;;;;;;;;;;;12.80;99.90;;;;;;5040614;28;20213;-79
2023/05/08 00:14:37;;;;;;;;;;;12.80;99.90;;;;;;5034770;28;19935;-79
2023/05/08 00:17:03;;;;;;;;;;;12.80;99.90;;;;;;5073622;28;19928;-79
2023/05/08 00:19:29;;;;;;;;;;;12.80;99.90;;;;;;5094814;28;19931;-79
2023/05/08 00:21:54;;;;;;;;;;;12.80;99.90;;;;;;5059405;28;19928;-79
2023/05/08 00:24:20;;;;;;;;;;;12.70;99.90;;;;;;5075971;28;19928;-79
2023/05/08 00:26:46;;;;;;;;;;;12.70;99.90;;;;;;5058868;28;19924;-79
2023/05/08 00:29:11;;;;;;;;;;;12.70;99.90;;;;;;5060030;28;19978;-79
2023/05/08 00:31:37;;;;;;;;;;;12.70;99.90;;;;;;5094752;28;19979;-79
2023/05/08 00:34:03;;;;;;;;;;;12.70;99.90;;;;;;5075773;28;19931;-79
2023/05/08 00:36:28;;;;;;;;;;;12.70;99.90;;;;;;5093961;28;19950;-79
2023/05/08 00:38:54;;;;;;;;;;;12.70;99.90;;;;;;5090866;28;19969;-79
2023/05/08 00:41:19;;;;;;;;;;;12.70;99.90;;;;;;5076411;28;19924;-79
2023/05/08 00:43:45;;;;;;;;;;;12.60;99.90;;;;;;5091099;28;19924;-79
2023/05/08 00:46:11;;;;;;;;;;;12.60;99.90;;;;;;5044848;28;19931;-79
2023/05/08 00:48:38;;;;;;;;;;;12.60;99.90;;;;;;5085150;28;19971;-79
2023/05/08 00:51:05;;;;;;;;;;;12.60;99.90;;;;;;5093208;28;19931;-79
2023/05/08 00:53:32;;;;;;;;;;;12.50;99.90;;;;;;5059623;28;19929;-79
2023/05/08 00:55:58;;;;;;;;;;;12.50;99.90;;;;;;5091208;28;19954;-79
2023/05/08 00:58:26;;;;;;;;;;;12.50;99.90;;;;;;5108592;28;19936;-79
2023/05/08 01:00:53;;;;;;;;;;;12.50;99.90;;;;;;5093530;28;19925;-79
2023/05/08 01:03:19;;;;;;;;;;;12.40;99.90;;;;;;5075664;28;20358;-79
2023/05/08 01:05:45;;;;;;;;;;;12.40;99.90;;;;;;5061346;28;19929;-79
2023/05/08 01:08:10;;;;;;;;;;;12.30;99.90;;;;;;5090466;28;19982;-79
2023/05/08 01:10:55;;;;;;;;;;;12.30;99.90;;;;;;5060331;28;19931;-79
2023/05/08 01:13:27;;;;;;;;;;;12.20;99.90;;;;;;5090785;28;19932;-79
2023/05/08 01:15:57;;;;;;;;;;;12.10;99.90;;;;;;5097154;28;19935;-79
2023/05/08 01:18:35;;;;;;;;;;;12.10;99.90;;;;;;5059930;28;19924;-79
2023/05/08 01:21:11;;;;;;;;;;;12.10;99.90;;;;;;5092083;28;23283;-79
2023/05/08 01:24:03;;;;;;;;;;;12.00;99.90;;;;;;5092671;28;19928;-79
2023/05/08 01:26:47;;;;;;;;;;;12.00;99.90;;;;;;5047357;28;19928;-79
2023/05/08 01:29:22;;;;;;;;;;;11.90;99.90;;;;;;5092637;28;20320;-79
2023/05/08 01:32:03;;;;;;;;;;;11.90;99.90;;;;;;5093794;28;19983;-79
2023/05/08 01:34:31;;;;;;;;;;;11.80;99.90;;;;;;5074625;28;19929;-79
2023/05/08 01:36:59;;;;;;;;;;;11.80;99.90;;;;;;5092978;28;19929;-79
2023/05/08 01:39:42;;;;;;;;;;;11.80;99.90;;;;;;5060134;28;19925;-79
2023/05/08 01:42:25;;;;;;;;;;;11.70;99.90;;;;;;5074020;28;19935;-79
2023/05/08 01:44:53;;;;;;;;;;;11.70;99.90;;;;;;5077032;28;19924;-79
2023/05/08 01:47:19;;;;;;;;;;;11.60;99.90;;;;;;5079592;28;19946;-79
2023/05/08 01:49:48;;;;;;;;;;;11.70;99.90;;;;;;5093928;28;20279;-79
2023/05/08 01:52:28;;;;;;;;;;;11.60;99.90;;;;;;5060055;28;19925;-79
2023/05/08 01:54:54;;;;;;;;;;;11.60;99.90;;;;;;5059838;28;19924;-79
2023/05/08 01:57:21;;;;;;;;;;;11.50;99.90;;;;;;5086047;28;19928;-79
2023/05/08 01:59:48;;;;;;;;;;;11.50;99.90;;;;;;5091932;28;19940;-79
2023/05/08 02:02:14;;;;;;;;;;;11.40;99.90;;;;;;5060481;28;19928;-79
2023/05/08 02:04:40;;;;;;;;;;;11.40;99.90;;;;;;5076120;28;19950;-79
2023/05/08 02:07:06;;;;;;;;;;;11.40;99.90;;;;;;5059270;28;19935;-79
2023/05/08 02:09:33;;;;;;;;;;;11.40;99.90;;;;;;5063018;28;19929;-78
2023/05/08 02:11:59;;;;;;;;;;;11.40;99.90;;;;;;5079025;28;20384;-79
2023/05/08 02:14:25;;;;;;;;;;;11.30;99.90;;;;;;5096117;28;19964;-79
2023/05/08 02:16:53;;;;;;;;;;;11.20;99.90;;;;;;5097339;28;19988;-79
2023/05/08 02:19:20;;;;;;;;;;;11.20;99.90;;;;;;5081095;28;20379;-78
2023/05/08 02:21:47;;;;;;;;;;;11.20;99.90;;;;;;5088977;28;19928;-79
2023/05/08 02:24:13;;;;;;;;;;;11.20;99.90;;;;;;5079546;28;19928;-79
2023/05/08 02:26:41;;;;;;;;;;;11.20;99.90;;;;;;5078005;28;20015;-78
2023/05/08 02:29:07;;;;;;;;;;;11.10;99.90;;;;;;5093940;28;20004;-78
2023/05/08 02:31:33;;;;;;;;;;;11.10;99.90;;;;;;5094390;28;20302;-79
2023/05/08 02:33:59;;;;;;;;;;;11.10;99.90;;;;;;5077190;28;19939;-79
2023/05/08 02:36:27;;;;;;;;;;;11.00;99.90;;;;;;5096366;28;19956;-79
2023/05/08 02:38:53;;;;;;;;;;;11.00;99.90;;;;;;5077125;28;20389;-79
2023/05/08 02:41:21;;;;;;;;;;;11.00;99.90;;;;;;5062773;28;20449;-78
2023/05/08 02:43:47;;;;;;;;;;;11.00;99.90;;;;;;5091574;28;19935;-78
2023/05/08 02:46:18;;;;;;;;;;;11.00;99.90;;;;;;5075537;28;19924;-79
2023/05/08 02:48:54;;;;;;;;;;;11.00;99.90;;;;;;5060979;28;20421;-78
2023/05/08 02:51:36;;;;;;;;;;;10.90;99.90;;;;;;5091923;28;19929;-79
2023/05/08 02:54:02;;;;;;;;;;;10.80;99.90;;;;;;5094555;28;19980;-79
2023/05/08 02:56:39;;;;;;;;;;;10.80;99.90;;;;;;5096330;28;19928;-79
2023/05/08 02:59:16;;;;;;;;;;;10.80;99.90;;;;;;5064784;28;19924;-79
2023/05/08 03:01:51;;;;;;;;;;;10.70;99.90;;;;;;5061995;28;19933;-79
2023/05/08 03:04:30;;;;;;;;;;;10.70;99.90;;;;;;5058666;28;19924;-79
2023/05/08 03:06:56;;;;;;;;;;;10.70;99.90;;;;;;5076143;28;19925;-79
2023/05/08 03:09:25;;;;;;;;;;;10.70;99.90;;;;;;5078976;28;19959;-79
2023/05/08 03:11:56;;;;;;;;;;;10.80;99.90;;;;;;5059074;28;19925;-78
2023/05/08 03:14:22;;;;;;;;;;;10.80;99.90;;;;;;5059907;28;20371;-78
2023/05/08 03:16:49;;;;;;;;;;;10.80;99.90;;;;;;5077421;28;19935;-79
2023/05/08 03:19:21;;;;;;;;;;;10.80;99.90;;;;;;5094418;28;19931;-78
2023/05/08 03:21:48;;;;;;;;;;;10.80;99.90;;;;;;5093779;28;20044;-78
2023/05/08 03:24:14;;;;;;;;;;;10.80;99.90;;;;;;5062155;28;20430;-78
2023/05/08 03:26:41;;;;;;;;;;;10.80;99.90;;;;;;5094993;28;19988;-79
2023/05/08 03:29:07;;;;;;;;;;;10.80;99.90;;;;;;5076505;28;19924;-79
2023/05/08 03:31:33;;;;;;;;;;;10.90;99.90;;;;;;5062863;28;19934;-79
2023/05/08 03:33:58;;;;;;;;;;;10.80;99.90;;;;;;5056627;28;19992;-78
2023/05/08 03:36:25;;;;;;;;;;;10.80;99.90;;;;;;5096004;28;19955;-78
2023/05/08 03:38:51;;;;;;;;;;;10.80;99.90;;;;;;5095130;28;19947;-78
2023/05/08 03:41:16;;;;;;;;;;;10.80;99.90;;;;;;5079002;28;20577;-78
2023/05/08 03:43:42;;;;;;;;;;;10.70;99.90;;;;;;5095234;28;20428;-78
2023/05/08 03:46:08;;;;;;;;;;;10.70;99.90;;;;;;5095343;28;19928;-79
2023/05/08 03:48:34;;;;;;;;;;;10.60;99.90;;;;;;5078933;28;19938;-78
2023/05/08 03:51:00;;;;;;;;;;;10.60;99.90;;;;;;5094023;28;19925;-79
2023/05/08 03:53:27;;;;;;;;;;;10.60;99.90;;;;;;5079181;28;20403;-79
2023/05/08 03:55:53;;;;;;;;;;;10.50;99.90;;;;;;5076859;28;19929;-79
2023/05/08 03:58:25;;;;;;;;;;;10.50;99.90;;;;;;5079002;28;20001;-78
2023/05/08 04:00:50;;;;;;;;;;;10.50;99.90;;;;;;5061773;28;19951;-79
2023/05/08 04:03:22;;;;;;;;;;;10.50;99.90;;;;;;5078293;28;19932;-79
2023/05/08 04:06:10;;;;;;;;;;;10.40;99.90;;;;;;5077710;28;20026;-78
2023/05/08 04:08:42;;;;;;;;;;;10.40;99.90;;;;;;5076249;28;19928;-79
2023/05/08 04:11:22;;;;;;;;;;;10.40;99.90;;;;;;5077926;28;19933;-78
2023/05/08 04:13:50;;;;;;;;;;;10.40;99.90;;;;;;5049116;28;19932;-78
2023/05/08 04:16:19;;;;;;;;;;;10.40;99.90;;;;;;5087833;28;19928;-78
2023/05/08 04:18:46;;;;;;;;;;;10.40;99.90;;;;;;5109659;28;19929;-78
2023/05/08 04:21:17;;;;;;;;;;;10.40;99.90;;;;;;5059662;28;20006;-79
2023/05/08 04:23:43;;;;;;;;;;;10.40;99.90;;;;;;5093533;28;19924;-78
2023/05/08 04:26:09;;;;;;;;;;;10.40;99.90;;;;;;5077282;28;19935;-78
2023/05/08 04:28:35;;;;;;;;;;;10.30;99.90;;;;;;5045105;28;20413;-78
2023/05/08 04:31:01;;;;;;;;;;;10.30;99.90;;;;;;5091635;28;19983;-78
2023/05/08 04:33:27;;;;;;;;;;;10.30;99.90;;;;;;5074570;28;19924;-79
2023/05/08 04:35:53;;;;;;;;;;;10.30;99.90;;;;;;5092769;28;19936;-78
2023/05/08 04:38:18;;;;;;;;;;;10.30;99.90;;;;;;5071981;28;19975;-78
2023/05/08 04:40:44;;;;;;;;;;;10.30;99.90;;;;;;5087097;28;19951;-78
2023/05/08 04:43:09;;;;;;;;;;;10.30;99.90;;;;;;5075217;28;19925;-78
2023/05/08 04:45:35;;;;;;;;;;;10.30;99.90;;;;;;5060208;28;19935;-78
2023/05/08 04:48:01;;;;;;;;;;;10.40;99.90;;;;;;5076139;28;19968;-78
2023/05/08 04:50:26;;;;;;;;;;;10.40;99.90;;;;;;5090393;28;20268;-78
2023/05/08 04:52:52;;;;;;;;;;;10.50;99.90;;;;;;5077780;28;19924;-78
2023/05/08 04:55:17;;;;;;;;;;;10.70;99.90;;;;;;5077396;28;19967;-78
2023/05/08 04:57:43;;;;;;;;;;;10.90;99.90;;;;;;5046391;28;20391;-78
2023/05/08 05:00:09;;;;;;;;;;;11.20;99.90;;;;;;5040097;28;19936;-78
2023/05/08 05:02:35;;;;;;;;;;;11.50;99.90;;;;;;5078161;28;19980;-78
2023/05/08 05:05:00;;;;;;;;;;;11.80;99.90;;;;;;5094100;28;19951;-78
2023/05/08 05:07:26;;;;;;;;;;;12.30;99.90;;;;;;5092738;28;19924;-79
2023/05/08 05:09:52;;;;;;;;;;;12.60;99.90;;;;;;5093594;28;19931;-79
2023/05/08 05:12:17;;;;;;;;;;;12.90;99.90;;;;;;5076966;28;19951;-79
2023/05/08 05:14:43;;;;;;;;;;;13.20;99.90;;;;;;5076792;28;19963;-79
2023/05/08 05:17:08;;;;;;;;;;;13.60;99.90;;;;;;5059889;28;19987;-79
2023/05/08 05:19:34;;;;;;;;;;;13.90;99.90;;;;;;5077090;28;19929;-79
2023/05/08 05:21:59;;;;;;;;;;;14.20;99.90;;;;;;5076700;28;19924;-79
2023/05/08 05:24:25;;;;;;;;;;;14.50;99.90;;;;;;5060515;28;19928;-79
2023/05/08 05:26:50;;;;;;;;;;;14.70;99.90;;;;;;5076735;28;19931;-80
2023/05/08 05:29:16;;;;;;;;;;;14.90;99.90;;;;;;5092572;28;19924;-79
2023/05/08 05:31:42;;;;;;;;;;;15.10;99.90;;;;;;5076365;28;19931;-79
2023/05/08 05:34:07;;;;;;;;;;;15.20;99.90;;;;;;5076313;28;19936;-79
2023/05/08 05:36:33;;;;;;;;;;;15.40;99.90;;;;;;5060622;28;19928;-79
2023/05/08 05:38:59;;;;;;;;;;;15.60;99.90;;;;;;5076011;28;20007;-79
2023/05/08 05:41:24;;;;;;;;;;;15.90;99.90;;;;;;5077101;28;20834;-79
2023/05/08 05:43:50;;;;;;;;;;;16.20;99.90;;;;;;5095429;28;19928;-79
2023/05/08 05:46:16;;;;;;;;;;;16.40;99.90;;;;;;5079625;28;19968;-80
2023/05/08 05:48:42;;;;;;;;;;;16.40;99.90;;;;;;5081403;28;19924;-80
2023/05/08 05:51:07;;;;;;;;;;;16.40;99.90;;;;;;5064337;28;19928;-80
2023/05/08 05:53:33;;;;;;;;;;;16.50;99.90;;;;;;5097116;28;19979;-80
2023/05/08 05:55:59;;;;;;;;;;;16.60;99.90;;;;;;5096984;28;19983;-80
2023/05/08 05:58:24;;;;;;;;;;;16.60;99.90;;;;;;5084127;28;19928;-80
2023/05/08 06:00:50;;;;;;;;;;;16.60;99.90;;;;;;5063423;28;19924;-80
2023/05/08 06:03:16;;;;;;;;;;;16.80;99.90;;;;;;5077689;28;19929;-80
2023/05/08 06:05:41;;;;;;;;;;;17.00;99.90;;;;;;5081288;28;20560;-80
2023/05/08 06:08:07;;;;;;;;;;;17.20;99.90;;;;;;5079951;28;19924;-80
2023/05/08 06:10:33;;;;;;;;;;;17.30;99.90;;;;;;5097339;28;19980;-80
2023/05/08 06:12:58;;;;;;;;;;;17.50;99.90;;;;;;5075629;28;19924;-80
2023/05/08 06:15:24;;;;;;;;;;;17.70;99.90;;;;;;5062301;28;19925;-80
2023/05/08 06:17:49;;;;;;;;;;;18.00;99.90;;;;;;5087393;28;19924;-80
2023/05/08 06:20:15;;;;;;;;;;;18.10;99.90;;;;;;5079302;28;19924;-81
2023/05/08 06:22:41;;;;;;;;;;;18.30;99.90;;;;;;5063548;28;19931;-80
2023/05/08 06:25:07;;;;;;;;;;;18.40;99.90;;;;;;5091106;28;20517;-81
2023/05/08 06:27:33;;;;;;;;;;;18.50;99.90;;;;;;5097232;28;19956;-81
2023/05/08 06:29:59;;;;;;;;;;;18.50;99.90;;;;;;5095439;28;19947;-81
2023/05/08 06:32:24;;;;;;;;;;;18.60;99.90;;;;;;5094130;28;19991;-81
2023/05/08 06:34:50;;;;;;;;;;;18.70;99.90;;;;;;5097199;28;20337;-81
2023/05/08 06:37:16;;;;;;;;;;;18.80;99.90;;;;;;5071673;28;19928;-81
2023/05/08 06:39:41;;;;;;;;;;;19.10;99.90;;;;;;5097249;28;19924;-81
2023/05/08 06:42:07;;;;;;;;;;;19.10;99.90;;;;;;5094556;28;19950;-81
2023/05/08 06:44:33;;;;;;;;;;;19.10;99.90;;;;;;5089629;28;20374;-81
2023/05/08 06:46:58;;;;;;;;;;;19.30;99.90;;;;;;5072739;28;19931;-81
2023/05/08 06:49:24;;;;;;;;;;;19.50;99.90;;;;;;5096943;28;19931;-81
2023/05/08 06:51:50;;;;;;;;;;;19.80;99.90;;;;;;5086156;28;19959;-81
2023/05/08 06:54:16;;;;;;;;;;;20.00;99.90;;;;;;5055320;28;19931;-81
2023/05/08 06:56:41;;;;;;;;;;;20.10;99.90;;;;;;5093496;28;20015;-81
2023/05/08 06:59:07;;;;;;;;;;;20.20;99.90;;;;;;5062788;28;19924;-82
2023/05/08 07:01:32;;;;;;;;;;;19.80;99.90;;;;;;5096823;28;20238;-81
2023/05/08 07:03:59;;;;;;;;;;;19.10;99.90;;;;;;5078536;28;19931;-81
2023/05/08 07:06:24;;;;;;;;;;;18.60;99.90;;;;;;5080457;28;19924;-80
2023/05/08 07:08:50;;;;;;;;;;;18.20;99.90;;;;;;5079216;28;20352;-81
2023/05/08 07:11:16;;;;;;;;;;;17.80;99.90;;;;;;5095691;28;20481;-80
2023/05/08 07:13:42;;;;;;;;;;;17.40;99.90;;;;;;5079607;28;19928;-80
2023/05/08 07:16:08;;;;;;;;;;;17.10;99.90;;;;;;5079390;28;19932;-80
2023/05/08 07:18:34;;;;;;;;;;;17.00;99.90;;;;;;5061795;28;19970;-80
2023/05/08 07:21:00;;;;;;;;;;;16.90;99.90;;;;;;5077626;28;19925;-80
2023/05/08 07:23:26;;;;;;;;;;;16.90;99.90;;;;;;5096106;28;20028;-81
2023/05/08 07:25:52;;;;;;;;;;;17.20;99.90;;;;;;5075270;28;20390;-80
2023/05/08 07:28:17;;;;;;;;;;;17.70;99.90;;;;;;5069838;28;19928;-81
2023/05/08 07:30:43;;;;;;;;;;;18.20;99.90;;;;;;5076871;28;19936;-81
2023/05/08 07:33:08;;;;;;;;;;;18.60;99.90;;;;;;5078103;28;19925;-81
2023/05/08 07:35:34;;;;;;;;;;;18.60;99.90;;;;;;5063034;28;19925;-81
2023/05/08 07:37:59;;;;;;;;;;;18.60;99.90;;;;;;5094917;28;19931;-81
2023/05/08 07:40:25;;;;;;;;;;;18.60;99.90;;;;;;5078185;28;19931;-80
2023/05/08 07:42:51;;;;;;;;;;;18.50;99.90;;;;;;5089451;28;19925;-80
2023/05/08 07:45:16;;;;;;;;;;;18.50;99.90;;;;;;5094142;28;20399;-80
2023/05/08 07:47:49;;;;;;;;;;;18.40;99.90;;;;;;5075239;28;19951;-80
2023/05/08 07:50:14;;;;;;;;;;;18.30;99.90;;;;;;5078236;28;19929;-81
2023/05/08 07:52:40;;;;;;;;;;;18.40;99.90;;;;;;5042309;28;20384;-80
2023/05/08 07:55:06;;;;;;;;;;;18.50;99.90;;;;;;5044153;28;19924;-80
2023/05/08 07:57:42;;;;;;;;;;;18.70;99.90;;;;;;5076202;28;19928;-81
2023/05/08 08:00:08;;;;;;;;;;;18.60;99.90;;;;;;5075790;28;19966;-80
2023/05/08 08:02:34;;;;;;;;;;;18.60;99.90;;;;;;5074569;28;20427;-81
2023/05/08 08:05:00;;;;;;;;;;;18.60;99.90;;;;;;5059815;28;20312;-81
2023/05/08 08:07:25;;;;;;;;;;;18.50;99.90;;;;;;5063504;28;19935;-81
2023/05/08 08:09:51;;;;;;;;;;;18.60;99.90;;;;;;5057886;28;19925;-81
2023/05/08 08:12:16;;;;;;;;;;;18.80;99.90;;;;;;5077924;28;19928;-81
2023/05/08 08:14:42;;;;;;;;;;;19.00;99.90;;;;;;5062370;28;19924;-80
2023/05/08 08:17:07;;;;;;;;;;;19.20;99.90;;;;;;5081695;28;20295;-81
2023/05/08 08:19:33;;;;;;;;;;;19.40;99.90;;;;;;5092012;28;19955;-81
2023/05/08 08:21:59;;;;;;;;;;;19.40;99.90;;;;;;5090006;28;19924;-81
2023/05/08 08:24:25;;;;;;;;;;;19.50;99.90;;;;;;5053275;28;20069;-81
2023/05/08 08:26:50;;;;;;;;;;;19.60;99.90;;;;;;5072723;28;19924;-81
2023/05/08 08:29:16;;;;;;;;;;;19.60;99.90;;;;;;5073446;28;20461;-80
2023/05/08 08:31:42;;;;;;;;;;;19.60;99.90;;;;;;5075291;28;19965;-81
2023/05/08 08:34:07;;;;;;;;;;;19.50;99.90;;;;;;5073318;28;19928;-81
2023/05/08 08:36:33;;;;;;;;;;;19.20;99.90;;;;;;5069600;28;19950;-81
2023/05/08 08:38:58;;;;;;;;;;;19.00;99.90;;;;;;5073890;28;20417;-80
2023/05/08 08:41:26;;;;;;;;;;;18.90;99.90;;;;;;5078766;28;19932;-81
2023/05/08 08:43:53;;;;;;;;;;;18.70;99.90;;;;;;5062628;28;20003;-80
2023/05/08 08:46:22;;;;;;;;;;;18.70;99.90;;;;;;5077640;28;19928;-81
2023/05/08 08:48:48;;;;;;;;;;;18.70;99.90;;;;;;5093990;28;19935;-81
2023/05/08 08:51:21;;;;;;;;;;;18.70;99.90;;;;;;5093101;28;19925;-81
2023/05/08 08:53:49;;;;;;;;;;;18.70;99.90;;;;;;5062273;28;20260;-81
2023/05/08 08:56:15;;;;;;;;;;;18.70;99.90;;;;;;5076897;28;20390;-81
2023/05/08 08:58:46;;;;;;;;;;;18.80;99.90;;;;;;5076453;28;19924;-81
2023/05/08 09:01:15;;;;;;;;;;;18.80;99.90;;;;;;5077715;28;19924;-81
2023/05/08 09:03:40;;;;;;;;;;;18.90;99.90;;;;;;5060216;28;19956;-81
2023/05/08 09:06:06;;;;;;;;;;;18.90;99.90;;;;;;5058516;28;19928;-81
2023/05/08 09:08:32;;;;;;;;;;;18.90;99.90;;;;;;5057540;28;19964;-81
2023/05/08 09:11:00;;;;;;;;;;;19.00;99.90;;;;;;5076209;28;20381;-81
2023/05/08 09:13:27;;;;;;;;;;;19.10;99.90;;;;;;5058651;28;19925;-81
2023/05/08 09:15:52;;;;;;;;;;;19.60;99.90;;;;;;5092166;28;19970;-81
2023/05/08 09:18:18;;;;;;;;;;;20.10;99.90;;;;;;5094726;28;19928;-81
2023/05/08 09:20:44;;;;;;;;;;;20.50;99.90;;;;;;5076334;28;20308;-82
2023/05/08 09:23:10;;;;;;;;;;;20.80;99.90;;;;;;5073329;28;19929;-81
2023/05/08 09:25:42;;;;;;;;;;;20.90;99.90;;;;;;5073891;28;19924;-81
2023/05/08 09:28:18;;;;;;;;;;;21.10;99.90;;;;;;5077523;28;19928;-81
2023/05/08 09:30:54;;;;;;;;;;;21.20;99.90;;;;;;5091702;28;19925;-81
2023/05/08 09:33:20;;;;;;;;;;;21.40;99.90;;;;;;5076053;28;20500;-82
2023/05/08 09:35:49;;;;;;;;;;;21.60;99.90;;;;;;5087693;28;19928;-82
2023/05/08 09:38:30;;;;;;;;;;;21.90;99.90;;;;;;5075103;28;20387;-81
2023/05/08 09:41:04;;;;;;;;;;;22.00;99.90;;;;;;5086744;28;19925;-81
2023/05/08 09:43:30;;;;;;;;;;;22.10;99.90;;;;;;5083890;28;19935;-81
2023/05/08 09:45:55;;;;;;;;;;;22.20;99.90;;;;;;5073037;28;19928;-82
2023/05/08 09:48:35;;;;;;;;;;;22.30;99.90;;;;;;5073224;28;20054;-82
2023/05/08 09:51:04;;;;;;;;;;;22.40;99.90;;;;;;5089853;28;19925;-83
2023/05/08 09:53:30;;;;;;;;;;;22.40;99.90;;;;;;5091907;28;20398;-83
2023/05/08 09:55:56;;;;;;;;;;;22.30;99.90;;;;;;5041137;28;19929;-84
2023/05/08 09:58:23;;;;;;;;;;;22.40;99.90;;;;;;5037352;28;19975;-84
2023/05/08 10:00:50;;;;;;;;;;;22.60;99.90;;;;;;5042204;28;19924;-84
2023/05/08 10:03:15;;;;;;;;;;;22.70;99.90;;;;;;5087656;28;20023;-85
2023/05/08 10:05:41;;;;;;;;;;;22.80;99.90;;;;;;5088836;28;20013;-84
2023/05/08 10:08:36;;;;;;;;;;;22.60;99.90;;;;;;5056295;28;19928;-85
2023/05/08 10:11:15;;;;;;;;;;;22.50;99.90;;;;;;5051401;28;19943;-84
2023/05/08 10:13:40;;;;;;;;;;;22.50;99.90;;;;;;5054781;28;19924;-84
2023/05/08 10:16:06;;;;;;;;;;;22.60;99.90;;;;;;5067519;28;19967;-86
2023/05/08 10:18:34;;;;;;;;;;;22.60;99.90;;;;;;5089555;28;19956;-79
2023/05/08 10:21:02;;;;;;;;;;;22.50;99.90;;;;;;5089194;28;20371;-83
2023/05/08 10:23:28;;;;;;;;;;;22.50;99.90;;;;;;5052616;28;19925;-82
2023/05/08 10:25:55;;;;;;;;;;;22.40;99.90;;;;;;5054077;28;19935;-83
2023/05/08 10:28:26;;;;;;;;;;;22.40;99.90;;;;;;5090411;28;19925;-83
2023/05/08 10:30:55;;;;;;;;;;;22.40;99.90;;;;;;5089267;28;19936;-83
2023/05/08 10:33:22;;;;;;;;;;;22.50;99.90;;;;;;5096625;28;19924;-83
2023/05/08 10:35:48;;;;;;;;;;;22.60;99.90;;;;;;5092969;28;19928;-83
2023/05/08 10:38:15;;;;;;;;;;;22.60;99.90;;;;;;5064806;28;19949;-83
2023/05/08 10:40:41;;;;;;;;;;;22.70;99.90;;;;;;5066547;28;19928;-82
2023/05/08 10:43:07;;;;;;;;;;;22.90;99.90;;;;;;5070793;28;20430;-83
2023/05/08 10:45:33;;;;;;;;;;;23.00;99.90;;;;;;5099018;28;19946;-82
2023/05/08 10:48:14;;;;;;;;;;;23.10;99.90;;;;;;5063126;28;19928;-83
2023/05/08 10:50:50;;;;;;;;;;;23.20;99.90;;;;;;5081338;28;19924;-83
2023/05/08 10:53:32;;;;;;;;;;;23.20;99.90;;;;;;5048086;28;19925;-83
2023/05/08 10:55:58;;;;;;;;;;;23.10;99.90;;;;;;5048861;28;19925;-83
2023/05/08 10:58:34;;;;;;;;;;;23.10;99.90;;;;;;5085687;28;20654;-83
2023/05/08 11:01:02;;;;;;;;;;;23.00;99.90;;;;;;5088669;28;19925;-83
2023/05/08 11:03:29;;;;;;;;;;;23.00;99.90;;;;;;5055925;28;19935;-83
2023/05/08 11:05:57;;;;;;;;;;;23.00;99.90;;;;;;5058519;28;19935;-83
2023/05/08 11:08:23;;;;;;;;;;;22.90;99.90;;;;;;5056682;28;19924;-83
2023/05/08 11:11:03;;;;;;;;;;;22.80;99.90;;;;;;5077745;28;20021;-83
2023/05/08 11:13:35;;;;;;;;;;;22.90;99.90;;;;;;5073807;28;19932;-83
2023/05/08 11:16:05;;;;;;;;;;;22.90;99.90;;;;;;5088116;28;19932;-83
2023/05/08 11:18:31;;;;;;;;;;;23.00;99.90;;;;;;5096413;28;19925;-83
2023/05/08 11:20:58;;;;;;;;;;;22.90;99.90;;;;;;5080033;28;19934;-83
2023/05/08 11:23:28;;;;;;;;;;;22.90;99.90;;;;;;5063179;28;19924;-84
2023/05/08 11:26:00;;;;;;;;;;;23.00;99.90;;;;;;5089245;28;19924;-83
2023/05/08 11:28:26;;;;;;;;;;;23.10;99.90;;;;;;5082096;28;19988;-84
2023/05/08 11:30:53;;;;;;;;;;;23.20;99.90;;;;;;5075783;28;20303;-83
2023/05/08 11:33:19;;;;;;;;;;;23.30;99.90;;;;;;5088224;28;19958;-84
2023/05/08 11:35:46;;;;;;;;;;;23.50;99.90;;;;;;5080146;28;19928;-84
2023/05/08 11:38:24;;;;;;;;;;;23.60;99.90;;;;;;5061313;28;19946;-84
2023/05/08 11:41:06;;;;;;;;;;;23.70;99.90;;;;;;5094126;28;19928;-84
2023/05/08 11:43:31;;;;;;;;;;;23.90;99.90;;;;;;5094590;28;19988;-84
2023/05/08 11:46:02;;;;;;;;;;;24.00;99.90;;;;;;5092137;28;19946;-84
2023/05/08 11:48:28;;;;;;;;;;;24.20;99.90;;;;;;5062459;28;19950;-83
2023/05/08 11:50:54;;;;;;;;;;;24.30;99.90;;;;;;5095133;28;19925;-83
2023/05/08 11:53:20;;;;;;;;;;;24.40;99.90;;;;;;5090256;28;19925;-83
2023/05/08 11:55:51;;;;;;;;;;;24.30;99.90;;;;;;5040879;28;19928;-83
2023/05/08 11:58:16;;;;;;;;;;;24.30;99.90;;;;;;5085414;28;19924;-79
2023/05/08 12:00:46;;;;;;;;;;;24.10;99.90;;;;;;5077987;28;19931;-84
2023/05/08 12:03:12;;;;;;;;;;;23.90;99.90;;;;;;5060623;28;20390;-83
2023/05/08 12:05:38;;;;;;;;;;;23.80;99.90;;;;;;5088021;28;20295;-83
2023/05/08 12:08:07;;;;;;;;;;;23.80;99.90;;;;;;5085410;28;19976;-84
2023/05/08 12:10:45;;;;;;;;;;;23.70;99.90;;;;;;5079177;28;19924;-84
2023/05/08 12:13:21;;;;;;;;;;;23.80;99.90;;;;;;5094642;28;19924;-84
2023/05/08 12:15:56;;;;;;;;;;;23.90;99.90;;;;;;5077735;28;19932;-84
2023/05/08 12:18:22;;;;;;;;;;;24.00;99.90;;;;;;5061301;28;19988;-83
2023/05/08 12:20:52;;;;;;;;;;;24.00;99.90;;;;;;5094372;28;19986;-83
2023/05/08 12:23:18;;;;;;;;;;;23.90;99.90;;;;;;5062115;28;20156;-83
2023/05/08 12:25:43;;;;;;;;;;;23.90;99.90;;;;;;5060591;28;19933;-83
2023/05/08 12:28:09;;;;;;;;;;;24.00;99.90;;;;;;5094314;28;19950;-84
2023/05/08 12:30:35;;;;;;;;;;;24.10;99.90;;;;;;5077658;28;19928;-83
2023/05/08 12:33:01;;;;;;;;;;;24.00;99.90;;;;;;5077804;28;19924;-83
2023/05/08 12:35:27;;;;;;;;;;;24.00;99.90;;;;;;5061626;28;19928;-83
2023/05/08 12:37:53;;;;;;;;;;;24.00;99.90;;;;;;5060139;28;20010;-83
2023/05/08 12:40:26;;;;;;;;;;;24.00;99.90;;;;;;5076885;28;19928;-83
2023/05/08 12:42:52;;;;;;;;;;;24.10;99.90;;;;;;5060595;28;20395;-84
2023/05/08 12:45:18;;;;;;;;;;;24.30;99.90;;;;;;5051343;28;19924;-84
2023/05/08 12:47:44;;;;;;;;;;;24.60;99.90;;;;;;5060857;28;19993;-84
2023/05/08 12:50:10;;;;;;;;;;;24.80;99.90;;;;;;5061506;28;19990;-84
2023/05/08 12:52:36;;;;;;;;;;;25.00;99.90;;;;;;5094314;28;19970;-81
2023/05/08 12:55:02;;;;;;;;;;;25.00;99.90;;;;;;5077671;28;19933;-81
2023/05/08 12:57:27;;;;;;;;;;;24.80;99.90;;;;;;5083091;28;19925;-81
2023/05/08 13:00:01;;;;;;;;;;;24.50;99.90;;;;;;5073690;28;19924;-82
2023/05/08 13:02:27;;;;;;;;;;;24.10;99.90;;;;;;5094819;28;20034;-82
2023/05/08 13:04:54;;;;;;;;;;;23.80;99.90;;;;;;5077305;28;19946;-81
2023/05/08 13:07:20;;;;;;;;;;;23.60;99.90;;;;;;5093651;28;19931;-81
2023/05/08 13:10:02;;;;;;;;;;;23.50;99.90;;;;;;5061108;28;19972;-81
2023/05/08 13:12:28;;;;;;;;;;;23.40;99.90;;;;;;5059745;28;20003;-82
2023/05/08 13:14:53;;;;;;;;;;;23.20;99.90;;;;;;5094717;28;20334;-81
2023/05/08 13:17:19;;;;;;;;;;;23.00;99.90;;;;;;5093607;28;19925;-82
2023/05/08 13:19:44;;;;;;;;;;;23.00;99.90;;;;;;5077356;28;19924;-81
2023/05/08 13:22:10;;;;;;;;;;;22.90;99.90;;;;;;5077965;28;19925;-81
2023/05/08 13:24:36;;;;;;;;;;;22.90;99.90;;;;;;5060572;28;19925;-81
2023/05/08 13:27:02;;;;;;;;;;;22.90;99.90;;;;;;5044235;28;20429;-81
2023/05/08 13:29:27;;;;;;;;;;;22.90;99.90;;;;;;5076577;28;19924;-81
2023/05/08 13:31:53;;;;;;;;;;;22.90;99.90;;;;;;5061581;28;19932;-82
2023/05/08 13:34:18;;;;;;;;;;;22.80;99.90;;;;;;5074337;28;19975;-82
2023/05/08 13:36:44;;;;;;;;;;;22.70;99.90;;;;;;5088926;28;19924;-83
2023/05/08 13:39:10;;;;;;;;;;;22.70;99.90;;;;;;5045601;28;19932;-82
2023/05/08 13:41:35;;;;;;;;;;;22.60;99.90;;;;;;5045274;28;19932;-83
2023/05/08 13:44:01;;;;;;;;;;;22.60;99.90;;;;;;5094187;28;19944;-82
2023/05/08 13:46:26;;;;;;;;;;;22.50;99.90;;;;;;5093573;28;19998;-83
2023/05/08 13:48:52;;;;;;;;;;;22.50;99.90;;;;;;5077810;28;19984;-83
2023/05/08 13:51:18;;;;;;;;;;;22.40;99.90;;;;;;5059688;28;19928;-82
2023/05/08 13:53:43;;;;;;;;;;;22.40;99.90;;;;;;5077518;28;19970;-82
2023/05/08 13:56:09;;;;;;;;;;;22.40;99.90;;;;;;5074448;28;19931;-83
2023/05/08 13:58:34;;;;;;;;;;;22.60;99.90;;;;;;5076184;28;19935;-83
2023/05/08 14:01:00;;;;;;;;;;;22.70;99.90;;;;;;5044157;28;19925;-83
2023/05/08 14:03:26;;;;;;;;;;;22.80;99.90;;;;;;5071751;28;20232;-83
2023/05/08 14:05:51;;;;;;;;;;;22.80;99.90;;;;;;5057756;28;19925;-83
2023/05/08 14:08:17;;;;;;;;;;;22.80;99.90;;;;;;5095770;28;19929;-83
2023/05/08 14:10:42;;;;;;;;;;;22.80;99.90;;;;;;5081217;28;19928;-83
2023/05/08 14:13:08;;;;;;;;;;;22.80;99.90;;;;;;5080281;28;19932;-83
2023/05/08 14:15:33;;;;;;;;;;;22.70;99.90;;;;;;5080780;28;19999;-83
2023/05/08 14:17:59;;;;;;;;;;;22.60;99.90;;;;;;5065093;28;19924;-82